x

Gulf Of Maine - 78 Nm East Of Portsmouth, Nh (44005) Wave Buoy

9:50 - Sat 23rd Jul 2016 All times are EDT. -4 hours from GMT.

  • Sig Wave height 3.0ft
  • Swell Direction
  • Peak Period 6s
  • Average Period 5s
  • Wind
    7mph
  • Sea Temp 69°f
  • Luft Temp 70°f
  • Sea Pressure 1007.1mb
  • Gulf Of Maine - 78 Nm East Of Portsmouth, Nh
  • Gulf Of Maine - 78 Nm East Of Portsmouth, Nh

More Historic Weather Station data

Upgrade to MSW Pro to gain access to the past 30 days of data for over 8000 Wavebouys and Weather Stations around the globe.

Join Pro

Comparision Forecast

View Surf forecast
   
Sa 07/23 9:50 3ft 6s 5s 7
mph
1007.1mb 69f 70f
8:50 3.5ft 7s 5s 4 7 mph 1007.1mb 69f 70f
7:50 3.5ft 6s 5s 9 11 mph 1006.9mb 68f 70f
6:50 3.5ft 6s 5s 11
mph
1005.7mb 68f 70f
5:50 4ft 7s 5s 7 9 mph 1006mb 68f 70f
4:50 4ft 7s 5s 4 7 mph 1006mb 68f 70f
3:50 4.5ft 7s 6s 13 20 mph 1005.9mb 68f 71f
2:50 5ft 7s 5s 11
mph
1005.2mb 68f 71f
1:50 5ft 7s 6s 13 16 mph 1005.5mb 68f 70f
12:50 5ft 7s 5s 4 7 mph 1005.9mb 68f 71f
Fr 07/22 11:50 5ft 6s 5s 18 22 mph 1006.4mb 68f 72f
10:50 5.5ft 6s 5s 20 25 mph 1005.4mb 68f 72f
9:50 6ft 6s 5s 20 22 mph 1005.7mb 68f 72f
8:50 6ft 6s 5s 20 22 mph 1005.7mb 68f 72f
7:50 6ft 7s 5s 20 25 mph 1005.4mb 69f 72f
6:50 6.5ft 6s 5s 22 25 mph 1005mb 69f 72f
5:50 5.5ft 7s 5s 22 25 mph 1005.4mb 69f 72f
4:50 5.5ft 7s 5s 25 27 mph 1005.3mb 68f 73f
3:50 5ft 6s 5s 22 27 mph 1005.7mb 68f 72f
1:50 5ft 6s 5s 22 25 mph 1007.1mb 68f 71f
12:50 5ft 7s 5s 20 25 mph 1007.6mb 68f 71f
11:50 5.5ft 7s 5s 22 27 mph 1008.3mb 68f 71f
10:50 5.5ft 6s 5s 22 27 mph 1008.9mb 68f 70f
9:50 5.5ft 6s 5s 22 27 mph 1009.3mb 68f 70f
8:50 5ft 6s 5s 22 29 mph 1010.1mb 68f 70f
7:50 5ft 6s 5s 22 29 mph 1010.7mb 68f 70f
6:50 5ft 6s 5s 22 27 mph 1011.1mb 68f 70f
5:50 4.5ft 5s 5s 22 25 mph 1011.3mb 68f 70f
4:50 4ft 6s 5s 20 25 mph 1011.4mb 68f 70f
3:50 4ft 5s 4s 20 22 mph 1011.7mb 68f 70f
2:50 3.5ft 5s 4s 20 22 mph 1012mb 68f 71f
1:50 2.5ft 5s 4s 20 22 mph 1012.5mb 68f 71f
12:50 2.5ft 5s 4s 13 16 mph 1013.1mb 68f 70f
Do 07/21 11:50 2.5ft 4s 4s 13 16 mph 1014.1mb 68f 70f
10:50 2.5ft 4s 4s 13 16 mph 1014.6mb 68f 70f
9:50 2.5ft 3s 4s 16 20 mph 1014.9mb 68f 70f
8:50 2ft 3s 4s 16 18 mph 1014.9mb 68f 70f
7:50 2ft 3s 4s 13 16 mph 1015.5mb 69f 70f
6:50 2ft 8s 4s 16 18 mph 1015.9mb 69f 70f
5:50 1.3ft 3s 4s 13 16 mph 1016.3mb 69f 71f
4:50 1.3ft 8s 4s 11
mph
1017.1mb 69f 70f
3:50 1.3ft 8s 4s 11
mph
1017.3mb 69f 70f
2:50 1.3ft 8s 4s 11
mph
1017.4mb 68f 69f
1:50 1.3ft 8s 4s 11 13 mph 1017.9mb 68f 69f
12:50 1.3ft 9s 4s 11
mph
1018.4mb 68f 69f
11:50 1.3ft 6s 4s 9 11 mph 1019.3mb 68f 68f
10:50 1.3ft 7s 4s 7
mph
1019.6mb 68f 68f
9:50 1.3ft 6s 4s 4
mph
1019.8mb 67f 68f
8:50 1.3ft 7s 4s 9
mph
1019.8mb 67f 68f
7:50 1.3ft 8s 4s 9
mph
1020.1mb 67f 68f
6:50 1.3ft 8s 4s 11 13 mph 1019.9mb 67f 68f
5:50 1.6ft 8s 5s 9 11 mph 1019.4mb 67f 68f
4:50 1.3ft 8s 4s 7 9 mph 1019mb 67f 68f
3:50 1.6ft 3s 4s 7
mph
1018.8mb 67f 68f
2:50 1.6ft 6s 4s 7 9 mph 1019.2mb 67f 69f
1:50 2ft 4s 4s 9
mph
1019.4mb 67f 69f
12:50 1.6ft 6s 4s 7 9 mph 1019.3mb 67f 69f
Mi 07/20 11:50 2ft 4s 4s 9
mph
1019.1mb 67f 69f
10:50 2ft 4s 4s 11 13 mph 1018.7mb 67f 70f
9:50 2.5ft 4s 4s 13 16 mph 1018.4mb 67f 71f
8:50 2.5ft 4s 4s 18 20 mph 1017.8mb 67f 71f
7:50 2.5ft 4s 4s 18 20 mph 1017.5mb 67f 71f
6:50 2.5ft 4s 4s 18 20 mph 1017.2mb 67f 71f
5:50 2.5ft 4s 4s 18 20 mph 1017.1mb 67f 70f
4:50 3ft 4s 4s 18 22 mph 1017.4mb 67f 70f
3:50 3ft 5s 4s 20 25 mph 1017.6mb 67f 70f
2:50 3ft 4s 4s 18 20 mph 1018.1mb 67f 69f
1:50 3ft 5s 4s 18 22 mph 1018.8mb 67f 68f
12:50 3ft 5s 4s 18 20 mph 1019.2mb 67f 67f
11:50 3.5ft 4s 4s 16 18 mph 1019.7mb 66f 67f
10:50 3.5ft 4s 4s 18 22 mph 1020.1mb 66f 67f
9:50 3ft 4s 4s 18 20 mph 1020.5mb 67f 67f
8:50 3ft 4s 4s 18 22 mph 1020.3mb 67f 67f
7:50 2.5ft 4s 4s 13 18 mph 1020.1mb 67f 67f
6:50 2.5ft 4s 4s 16 18 mph 1019.8mb 67f 68f
5:50 2.5ft 3s 4s 16 20 mph 1019.8mb 67f 67f
4:50 2ft 3s 4s 16 18 mph 1019.5mb 67f 67f
3:50 2ft 3s 4s 16 18 mph 1019.4mb 67f 68f
2:50 2.5ft 4s 4s 13 18 mph 1019mb 67f 68f
1:50 2.5ft 4s 3s 16 18 mph 1018.8mb 67f 68f
12:50 2ft 6s 4s 18 22 mph 1018.6mb 67f 68f
Di 07/19 11:50 1.6ft 6s 4s 11 13 mph 1018.7mb 67f 68f
10:50 2ft 6s 4s 9 11 mph 1018.5mb 67f 69f
9:50 2ft 3s 4s 13 16 mph 1018.3mb 67f 69f
8:50 1.6ft 6s 4s 13 16 mph 1017.5mb 68f 69f
7:50 1.6ft 6s 4s 9 11 mph 1017mb 68f 69f
6:50 1.6ft 6s 4s 11 13 mph 1016.8mb 68f 69f
5:50 1.6ft 6s 5s 9 11 mph 1016.4mb 68f 69f
4:50 1.6ft 5s 5s 9 11 mph 1016.1mb 68f 69f
3:50 1.6ft 6s 5s 7 9 mph 1016.5mb 68f 68f